Time;durP1;ratioP1;P1;durP2;ratioP2;P2;SDS_P1;SDS_P2;PMS_P1;PMS_P2;Temp;Humidity;BMP_temperature;BMP_pressure;BME280_temperature;BME280_humidity;BME280_pressure;Samples;Min_cycle;Max_cycle;Signal;HPM_P1;HPM_P2
2021/12/21 00:00:59;;;;;;;31.30;24.20;;;-2.30;99.90;;;;;;5019053;28;20815;-75
2021/12/21 00:03:27;;;;;;;37.23;25.20;;;-2.30;99.90;;;;;;5005409;28;20860;-76
2021/12/21 00:05:54;;;;;;;39.20;25.33;;;-2.20;99.90;;;;;;5004062;28;20483;-75
2021/12/21 00:08:21;;;;;;;28.03;23.63;;;-2.20;99.90;;;;;;5005628;28;20478;-75
2021/12/21 00:10:48;;;;;;;32.33;24.70;;;-2.20;99.90;;;;;;5017864;28;20443;-75
2021/12/21 00:13:37;;;;;;;30.30;25.43;;;-2.10;99.90;;;;;;5022767;28;20936;-75
2021/12/21 00:16:13;;;;;;;28.50;23.93;;;-2.10;99.90;;;;;;5022994;28;20888;-75
2021/12/21 00:18:45;;;;;;;34.23;25.80;;;-2.10;99.90;;;;;;5004086;28;20502;-76
2021/12/21 00:21:23;;;;;;;27.40;23.43;;;-2.20;99.90;;;;;;5013136;28;20541;-76
2021/12/21 00:23:52;;;;;;;25.73;23.10;;;-2.20;99.90;;;;;;5005327;28;21189;-75
2021/12/21 00:26:21;;;;;;;26.60;23.80;;;-2.20;99.90;;;;;;5030405;28;20478;-74
2021/12/21 00:28:56;;;;;;;24.63;22.10;;;-2.20;99.90;;;;;;5017666;28;20451;-76
2021/12/21 00:31:23;;;;;;;24.93;22.50;;;-2.20;99.90;;;;;;5014412;28;20453;-75
2021/12/21 00:33:50;;;;;;;24.90;22.50;;;-2.30;99.90;;;;;;5015815;28;20435;-75
2021/12/21 00:36:19;;;;;;;24.43;22.13;;;-2.40;99.90;;;;;;5031307;28;20455;-75
2021/12/21 00:38:47;;;;;;;23.17;20.97;;;-2.50;99.90;;;;;;5019903;28;20440;-76
2021/12/21 00:41:15;;;;;;;24.53;22.10;;;-2.50;99.90;;;;;;5001172;28;20463;-75
2021/12/21 00:43:42;;;;;;;25.20;22.60;;;-2.50;99.90;;;;;;5022766;28;20439;-75
2021/12/21 00:46:11;;;;;;;24.23;21.93;;;-2.50;99.90;;;;;;5022158;28;20824;-75
2021/12/21 00:48:47;;;;;;;24.93;22.40;;;-2.60;99.90;;;;;;5022064;28;20435;-76
2021/12/21 00:51:14;;;;;;;22.60;20.53;;;-2.60;99.90;;;;;;5000458;28;20455;-75
2021/12/21 00:53:42;;;;;;;24.33;21.93;;;-2.70;99.90;;;;;;5020138;28;20435;-75
2021/12/21 00:56:09;;;;;;;31.67;23.87;;;-2.70;99.90;;;;;;5021896;28;20762;-75
2021/12/21 00:58:36;;;;;;;31.10;23.60;;;-2.70;99.90;;;;;;5021891;28;20447;-75
2021/12/21 01:01:05;;;;;;;30.53;23.73;;;-2.70;99.90;;;;;;5004453;28;20847;-75
2021/12/21 01:03:34;;;;;;;24.80;22.40;;;-2.80;99.90;;;;;;4996857;28;20459;-75
2021/12/21 01:06:09;;;;;;;26.83;21.80;;;-2.90;99.90;;;;;;5004123;28;20475;-75
2021/12/21 01:08:46;;;;;;;24.40;21.80;;;-2.80;99.90;;;;;;5014970;28;20439;-75
2021/12/21 01:11:17;;;;;;;28.97;23.03;;;-2.90;99.90;;;;;;5003345;28;20487;-75
2021/12/21 01:13:58;;;;;;;28.77;22.43;;;-2.90;99.90;;;;;;5019509;28;20447;-75
2021/12/21 01:16:33;;;;;;;23.47;20.90;;;-2.90;99.90;;;;;;5024548;28;20486;-75
2021/12/21 01:19:09;;;;;;;24.20;21.57;;;-3.00;99.90;;;;;;5021744;28;20909;-76
2021/12/21 01:21:42;;;;;;;23.57;21.10;;;-2.90;99.90;;;;;;4997286;28;20454;-75
2021/12/21 01:24:23;;;;;;;23.90;21.60;;;-3.00;99.90;;;;;;5019009;28;20800;-75
2021/12/21 01:27:02;;;;;;;23.80;21.43;;;-3.00;99.90;;;;;;5003664;28;20532;-75
2021/12/21 01:29:35;;;;;;;23.10;20.83;;;-3.00;99.90;;;;;;5013559;28;20436;-76
2021/12/21 01:32:09;;;;;;;23.87;21.47;;;-3.10;99.90;;;;;;5000506;28;21022;-75
2021/12/21 01:34:47;;;;;;;24.33;21.80;;;-3.10;99.90;;;;;;4995720;28;20816;-75
2021/12/21 01:37:21;;;;;;;23.20;20.80;;;-3.10;99.90;;;;;;4998696;28;20478;-75
2021/12/21 01:39:58;;;;;;;23.27;21.13;;;-3.10;99.90;;;;;;5007136;28;20447;-75
2021/12/21 01:42:38;;;;;;;22.97;20.67;;;-3.10;99.90;;;;;;5007026;28;20486;-75
2021/12/21 01:50:36;;;;;;;23.60;20.50;;;-3.10;99.90;;;;;;5010161;28;20432;-75
2021/12/21 01:53:03;;;;;;;26.73;21.60;;;-3.10;99.90;;;;;;5003282;28;20447;-75
2021/12/21 01:55:31;;;;;;;22.63;20.43;;;-3.20;99.90;;;;;;5016321;28;20454;-76
2021/12/21 01:57:58;;;;;;;23.67;21.17;;;-3.20;99.90;;;;;;5020113;28;20474;-75
2021/12/21 02:00:25;;;;;;;24.67;20.00;;;-3.20;99.90;;;;;;5016026;28;20449;-76
2021/12/21 02:02:52;;;;;;;23.87;21.13;;;-3.20;99.90;;;;;;5024119;28;20966;-75
2021/12/21 02:05:19;;;;;;;20.67;18.80;;;-3.30;99.90;;;;;;4999616;28;20474;-76
2021/12/21 02:07:47;;;;;;;23.67;21.03;;;-3.30;99.90;;;;;;5008641;28;20795;-75
2021/12/21 02:10:14;;;;;;;22.90;19.77;;;-3.30;99.90;;;;;;4996697;28;20462;-75
2021/12/21 02:12:41;;;;;;;22.10;20.03;;;-3.30;99.90;;;;;;5002880;28;20450;-76
2021/12/21 02:15:08;;;;;;;23.00;20.70;;;-3.30;99.90;;;;;;5015787;28;20442;-75
2021/12/21 02:18:05;;;;;;;23.30;20.80;;;-3.30;99.90;;;;;;5001460;28;20874;-75
2021/12/21 02:20:42;;;;;;;25.17;21.47;;;-3.30;99.90;;;;;;5007695;28;20447;-75
2021/12/21 02:23:14;;;;;;;23.63;21.17;;;-3.40;99.90;;;;;;5020464;28;20790;-75
2021/12/21 02:28:58;;;;;;;23.70;21.53;;;-3.30;99.90;;;;;;4997742;28;20447;-75
2021/12/21 02:31:26;;;;;;;26.20;21.47;;;-3.30;99.90;;;;;;5024229;28;20468;-75
2021/12/21 02:33:54;;;;;;;23.83;21.40;;;-3.30;99.90;;;;;;5002791;28;20453;-76
2021/12/21 02:36:22;;;;;;;23.33;21.03;;;-3.30;99.90;;;;;;5038730;22;20497;-81
2021/12/21 02:38:49;;;;;;;28.83;23.23;;;-3.20;99.90;;;;;;5026657;28;21033;-80
2021/12/21 02:41:17;;;;;;;25.83;23.07;;;-3.30;99.90;;;;;;5026130;28;20450;-80
2021/12/21 02:43:44;;;;;;;25.33;22.73;;;-3.20;99.90;;;;;;5025812;28;20538;-81
2021/12/21 02:46:11;;;;;;;24.83;22.30;;;-3.20;99.90;;;;;;5043136;28;21016;-80
2021/12/21 02:48:38;;;;;;;25.70;22.97;;;-3.20;99.90;;;;;;5029562;28;20463;-81
2021/12/21 02:51:06;;;;;;;28.60;21.97;;;-3.10;99.90;;;;;;5055721;28;20432;-80
2021/12/21 02:53:34;;;;;;;24.03;21.13;;;-3.10;99.90;;;;;;5044162;28;20445;-80
2021/12/21 02:56:02;;;;;;;24.53;22.23;;;-3.10;99.90;;;;;;5033863;28;20462;-80
2021/12/21 02:58:29;;;;;;;24.63;22.10;;;-3.00;99.90;;;;;;5026941;28;20438;-82
2021/12/21 03:00:56;;;;;;;23.93;21.50;;;-3.10;99.90;;;;;;5042254;28;20542;-81
2021/12/21 03:03:26;;;;;;;21.90;19.90;;;-3.10;99.90;;;;;;5046391;28;20897;-79
2021/12/21 03:05:56;;;;;;;22.93;20.53;;;-3.00;99.90;;;;;;5052080;28;20460;-80
2021/12/21 03:08:26;;;;;;;20.97;19.07;;;-3.10;99.90;;;;;;5037038;28;20907;-79
2021/12/21 03:11:10;;;;;;;22.37;20.40;;;-3.10;99.90;;;;;;5026009;28;20458;-80
2021/12/21 03:16:38;;;;;;;22.37;20.07;;;-3.20;99.90;;;;;;4981695;28;20472;-81
2021/12/21 03:19:06;;;;;;;22.07;20.23;;;-3.20;99.90;;;;;;4982143;28;20464;-79
2021/12/21 03:21:34;;;;;;;22.50;20.60;;;-3.20;99.90;;;;;;5000038;28;20494;-80
2021/12/21 03:24:01;;;;;;;21.93;20.00;;;-3.20;99.90;;;;;;5052296;28;20433;-81
2021/12/21 03:26:30;;;;;;;24.27;21.77;;;-3.20;99.90;;;;;;5007474;28;20540;-82
2021/12/21 03:28:57;;;;;;;23.27;20.63;;;-3.20;99.90;;;;;;5035572;28;20443;-81
2021/12/21 03:31:25;;;;;;;25.63;23.10;;;-3.20;99.90;;;;;;5031821;28;20451;-82
2021/12/21 03:33:53;;;;;;;33.83;23.90;;;-3.20;99.90;;;;;;5048522;28;20907;-79
2021/12/21 03:36:20;;;;;;;27.67;24.13;;;-3.20;99.90;;;;;;5049109;28;20525;-80
2021/12/21 03:38:54;;;;;;;30.37;23.00;;;-3.20;99.90;;;;;;5053530;28;20969;-80
2021/12/21 03:41:21;;;;;;;33.00;23.83;;;-3.20;99.90;;;;;;5049912;28;20465;-81
2021/12/21 03:43:51;;;;;;;26.70;23.70;;;-3.30;99.90;;;;;;5025375;28;20457;-83
2021/12/21 03:46:18;;;;;;;32.27;24.37;;;-3.20;99.90;;;;;;5040260;28;20531;-85
2021/12/21 03:48:48;;;;;;;27.17;23.77;;;-3.20;99.90;;;;;;5026171;28;20461;-85
2021/12/21 03:51:17;;;;;;;29.40;23.80;;;-3.20;99.90;;;;;;5033573;28;20496;-83
2021/12/21 03:53:44;;;;;;;34.03;23.13;;;-3.30;99.90;;;;;;5025732;28;20956;-83
2021/12/21 03:56:28;;;;;;;30.27;23.43;;;-3.30;99.90;;;;;;5044510;28;20505;-84
2021/12/21 03:58:57;;;;;;;25.40;22.70;;;-3.30;99.90;;;;;;5038875;28;20459;-85
2021/12/21 04:01:24;;;;;;;25.97;23.17;;;-3.40;99.90;;;;;;5034669;28;20482;-86
2021/12/21 04:03:51;;;;;;;25.97;23.47;;;-3.40;99.90;;;;;;5035680;28;20813;-84
2021/12/21 04:06:18;;;;;;;25.23;22.70;;;-3.40;99.90;;;;;;5036885;28;20472;-85
2021/12/21 04:08:45;;;;;;;26.33;23.37;;;-3.40;99.90;;;;;;5035822;28;21013;-85
2021/12/21 04:11:12;;;;;;;25.37;22.83;;;-3.50;99.90;;;;;;5035328;28;20446;-83
2021/12/21 04:13:39;;;;;;;25.47;23.07;;;-3.50;99.90;;;;;;5030579;28;21264;-83
2021/12/21 04:16:08;;;;;;;25.27;22.53;;;-3.60;99.90;;;;;;5050909;28;20612;-82
2021/12/21 04:18:37;;;;;;;28.13;24.40;;;-3.60;99.90;;;;;;5032838;28;20470;-81
2021/12/21 04:21:06;;;;;;;33.30;25.93;;;-3.60;99.90;;;;;;5033530;28;20936;-83
2021/12/21 04:23:33;;;;;;;34.97;27.60;;;-3.60;99.90;;;;;;5033996;28;20449;-81
2021/12/21 04:26:00;;;;;;;29.50;25.80;;;-3.60;99.90;;;;;;5026877;28;21002;-81
2021/12/21 04:28:27;;;;;;;31.60;25.43;;;-3.70;99.90;;;;;;5034987;28;20875;-82
2021/12/21 04:30:54;;;;;;;26.23;23.73;;;-3.70;99.90;;;;;;5035114;28;20449;-83
2021/12/21 04:33:22;;;;;;;25.30;22.60;;;-3.70;99.90;;;;;;5031887;28;20462;-82
2021/12/21 04:35:49;;;;;;;22.50;20.40;;;-3.70;99.90;;;;;;5026268;28;20467;-82
2021/12/21 04:38:22;;;;;;;23.20;20.67;;;-3.70;99.90;;;;;;5046310;28;20550;-82
2021/12/21 04:40:53;;;;;;;21.07;19.27;;;-3.70;99.90;;;;;;5031867;28;20516;-82
2021/12/21 04:43:20;;;;;;;21.90;20.00;;;-3.70;99.90;;;;;;5033253;28;20449;-82
2021/12/21 04:45:47;;;;;;;22.17;20.13;;;-3.80;99.90;;;;;;5048584;28;20452;-81
2021/12/21 04:48:14;;;;;;;21.17;19.17;;;-3.90;99.90;;;;;;5029076;28;20465;-80
2021/12/21 04:50:44;;;;;;;21.83;20.07;;;-3.90;99.90;;;;;;5026672;28;20439;-77
2021/12/21 04:53:11;;;;;;;22.77;20.67;;;-3.90;99.90;;;;;;5043043;28;20471;-77
2021/12/21 04:55:39;;;;;;;21.93;19.93;;;-4.00;99.90;;;;;;5041306;28;20477;-82
2021/12/21 04:58:06;;;;;;;21.97;19.97;;;-4.10;99.90;;;;;;5045075;28;20984;-81
2021/12/21 05:00:34;;;;;;;23.00;20.77;;;-4.10;99.90;;;;;;5025014;28;20456;-80
2021/12/21 05:03:02;;;;;;;22.37;20.23;;;-4.20;99.90;;;;;;5042885;28;20478;-82
2021/12/21 05:05:29;;;;;;;22.00;20.03;;;-4.20;99.90;;;;;;5037726;28;20464;-83
2021/12/21 05:08:07;;;;;;;23.13;21.23;;;-4.30;99.90;;;;;;5038992;28;20500;-81
2021/12/21 05:10:37;;;;;;;22.57;20.43;;;-4.30;99.90;;;;;;5043744;28;20480;-82
2021/12/21 05:13:04;;;;;;;21.53;19.63;;;-4.40;99.90;;;;;;5026590;28;20441;-83
2021/12/21 05:15:31;;;;;;;22.00;20.03;;;-4.40;99.90;;;;;;5046123;28;20443;-83
2021/12/21 05:17:58;;;;;;;23.77;21.30;;;-4.50;99.90;;;;;;5026685;28;21023;-83
2021/12/21 05:20:25;;;;;;;24.20;21.90;;;-4.40;99.90;;;;;;5028303;28;20455;-82
2021/12/21 05:22:52;;;;;;;23.67;21.40;;;-4.40;99.90;;;;;;5043329;28;20437;-82
2021/12/21 05:25:20;;;;;;;25.77;22.97;;;-4.30;99.90;;;;;;5026606;28;20450;-82
2021/12/21 05:27:47;;;;;;;25.33;22.80;;;-4.30;99.90;;;;;;5024766;28;20448;-82
2021/12/21 05:30:14;;;;;;;30.90;24.17;;;-4.30;99.90;;;;;;5026500;28;20800;-81
2021/12/21 05:32:42;;;;;;;25.17;22.50;;;-4.20;99.90;;;;;;5022847;28;21035;-82
2021/12/21 05:35:10;;;;;;;29.37;23.90;;;-4.20;99.90;;;;;;5042876;28;20452;-82
2021/12/21 05:37:39;;;;;;;28.83;24.63;;;-4.10;99.90;;;;;;5025854;28;20485;-83
2021/12/21 05:40:12;;;;;;;28.67;24.10;;;-4.00;99.90;;;;;;5044148;28;20438;-83
2021/12/21 05:42:41;;;;;;;34.67;25.97;;;-4.00;99.90;;;;;;5026769;28;20446;-82
2021/12/21 05:45:10;;;;;;;35.13;25.80;;;-4.00;99.90;;;;;;5025751;28;20435;-82
2021/12/21 05:47:37;;;;;;;36.63;26.37;;;-4.00;99.90;;;;;;5026264;28;20570;-84
2021/12/21 05:50:07;;;;;;;41.67;27.37;;;-3.90;99.90;;;;;;5032807;28;20515;-83
2021/12/21 05:52:37;;;;;;;34.87;26.70;;;-3.90;99.90;;;;;;5027014;28;20469;-82
2021/12/21 05:55:05;;;;;;;39.93;28.63;;;-3.90;99.90;;;;;;5052419;28;20536;-82
2021/12/21 05:57:32;;;;;;;34.03;25.80;;;-3.90;99.90;;;;;;5030609;28;20504;-84
2021/12/21 06:00:01;;;;;;;25.90;23.20;;;-3.80;99.90;;;;;;5023520;28;21012;-83
2021/12/21 06:02:27;;;;;;;26.67;23.90;;;-3.90;99.90;;;;;;5030752;28;20449;-82
2021/12/21 06:04:54;;;;;;;27.00;23.87;;;-3.90;99.90;;;;;;5020836;28;20542;-81
2021/12/21 06:07:22;;;;;;;29.10;23.80;;;-3.90;99.90;;;;;;5040625;28;20494;-82
2021/12/21 06:09:49;;;;;;;27.13;24.03;;;-4.00;99.90;;;;;;5046942;28;20516;-79
2021/12/21 06:12:30;;;;;;;26.03;23.33;;;-4.00;99.90;;;;;;5033452;28;20440;-83
2021/12/21 06:23:37;;;;;;;23.83;21.47;;;-4.20;99.90;;;;;;5037949;28;21041;-84
2021/12/21 06:26:08;;;;;;;23.20;20.80;;;-4.20;99.90;;;;;;5037643;28;20555;-83
2021/12/21 06:28:36;;;;;;;21.50;19.30;;;-4.40;99.90;;;;;;5024258;28;20584;-84
2021/12/21 06:31:04;;;;;;;20.87;19.13;;;-4.40;99.90;;;;;;5040411;28;20466;-84
2021/12/21 06:33:33;;;;;;;22.20;20.30;;;-4.40;99.90;;;;;;5053816;28;20566;-83
2021/12/21 06:36:00;;;;;;;23.33;21.23;;;-4.40;99.90;;;;;;5030036;28;20485;-83
2021/12/21 06:38:28;;;;;;;20.80;19.10;;;-4.60;99.90;;;;;;5032472;28;21048;-84
2021/12/21 06:40:56;;;;;;;20.17;18.47;;;-4.60;99.90;;;;;;5044683;28;20443;-83
2021/12/21 06:43:23;;;;;;;22.30;20.30;;;-4.60;99.90;;;;;;5049283;28;20834;-84
2021/12/21 06:45:56;;;;;;;21.53;19.73;;;-4.60;99.90;;;;;;5021918;28;20483;-84
2021/12/21 06:51:16;;;;;;;19.83;18.07;;;-4.60;99.90;;;;;;5030418;28;20750;-83
2021/12/21 06:53:45;;;;;;;20.30;18.60;;;-4.60;99.90;;;;;;5027418;28;20454;-84
2021/12/21 06:56:12;;;;;;;21.47;19.47;;;-4.60;99.90;;;;;;5033495;28;20480;-82
2021/12/21 06:58:40;;;;;;;22.03;19.93;;;-4.60;99.90;;;;;;5031111;28;20535;-83
2021/12/21 07:01:08;;;;;;;22.33;20.40;;;-4.50;99.90;;;;;;5032386;28;20447;-85
2021/12/21 07:03:35;;;;;;;22.87;20.63;;;-4.50;99.90;;;;;;5029097;28;20454;-83
2021/12/21 07:06:05;;;;;;;22.57;20.30;;;-4.50;99.90;;;;;;5022923;28;20478;-81
2021/12/21 07:08:43;;;;;;;22.23;20.13;;;-4.50;99.90;;;;;;5032427;28;20981;-82
2021/12/21 07:11:19;;;;;;;25.07;22.40;;;-4.50;99.90;;;;;;5042933;28;20431;-81
2021/12/21 07:19:16;;;;;;;23.50;21.07;;;-4.60;99.90;;;;;;5041740;28;20534;-80
2021/12/21 07:21:43;;;;;;;22.57;20.27;;;-4.60;99.90;;;;;;5041543;28;20425;-82
2021/12/21 07:24:12;;;;;;;23.93;21.43;;;-4.60;99.90;;;;;;5035447;28;20452;-80
2021/12/21 07:26:38;;;;;;;24.17;21.77;;;-4.60;99.90;;;;;;5040722;28;20847;-80
2021/12/21 07:29:05;;;;;;;24.37;21.93;;;-4.60;99.90;;;;;;5036952;28;20442;-82
2021/12/21 07:31:33;;;;;;;24.00;21.33;;;-4.60;99.90;;;;;;5044115;28;20441;-81
2021/12/21 07:33:59;;;;;;;25.33;22.73;;;-4.60;99.90;;;;;;5023461;28;20444;-80
2021/12/21 07:36:29;;;;;;;26.63;23.83;;;-4.60;99.90;;;;;;5026736;28;20562;-80
2021/12/21 07:38:57;;;;;;;26.60;22.77;;;-4.60;99.90;;;;;;5045153;28;20483;-80
2021/12/21 07:41:25;;;;;;;23.97;21.63;;;-4.60;99.90;;;;;;5030585;28;20470;-81
2021/12/21 07:43:53;;;;;;;24.23;21.67;;;-4.60;99.90;;;;;;5047552;28;20429;-82
2021/12/21 07:46:19;;;;;;;22.57;20.43;;;-4.60;99.90;;;;;;5025144;28;20469;-81
2021/12/21 07:48:47;;;;;;;25.83;22.37;;;-4.50;99.90;;;;;;5029894;28;20981;-81
2021/12/21 07:51:14;;;;;;;24.13;21.60;;;-4.50;99.90;;;;;;5026638;28;20446;-83
2021/12/21 07:53:42;;;;;;;23.57;21.20;;;-4.50;99.90;;;;;;5031273;28;20445;-81
2021/12/21 07:56:09;;;;;;;22.67;20.33;;;-4.50;99.90;;;;;;5026937;28;20468;-81
2021/12/21 07:58:38;;;;;;;21.37;19.33;;;-4.40;99.90;;;;;;5045827;28;20484;-81
2021/12/21 08:01:06;;;;;;;21.23;19.33;;;-4.40;99.90;;;;;;5028955;28;20544;-81
2021/12/21 08:03:34;;;;;;;22.33;20.33;;;-4.30;99.90;;;;;;5025840;28;20824;-80
2021/12/21 08:06:02;;;;;;;22.37;19.97;;;-4.10;99.90;;;;;;5033677;28;20470;-81
2021/12/21 08:08:30;;;;;;;21.97;19.80;;;-3.80;99.90;;;;;;5032417;28;20483;-81
2021/12/21 08:11:11;;;;;;;22.83;20.63;;;-3.60;99.90;;;;;;5038877;28;20446;-81
2021/12/21 08:13:43;;;;;;;22.80;20.70;;;-3.20;99.90;;;;;;5042195;28;20439;-81
2021/12/21 08:16:10;;;;;;;22.40;20.20;;;-2.90;99.90;;;;;;5025237;28;20541;-81
2021/12/21 08:18:38;;;;;;;21.93;20.03;;;-2.60;99.90;;;;;;5043031;28;20991;-82
2021/12/21 08:21:05;;;;;;;20.93;19.03;;;-2.40;99.90;;;;;;5025252;28;20435;-81
2021/12/21 08:23:32;;;;;;;22.00;19.93;;;-2.40;99.90;;;;;;5024927;28;20450;-81
2021/12/21 08:25:59;;;;;;;23.10;20.70;;;-2.30;99.90;;;;;;5045064;28;20464;-81
2021/12/21 08:28:26;;;;;;;21.67;19.63;;;-2.30;99.90;;;;;;5021754;28;20462;-82
2021/12/21 08:30:54;;;;;;;21.70;19.83;;;-2.20;99.90;;;;;;5022433;28;20818;-81
2021/12/21 08:33:21;;;;;;;22.33;20.13;;;-2.10;99.90;;;;;;5025620;28;20533;-81
2021/12/21 08:35:48;;;;;;;21.90;19.53;;;-2.00;99.90;;;;;;5025822;28;20477;-81
2021/12/21 08:38:18;;;;;;;23.27;20.80;;;-1.80;99.90;;;;;;5042359;28;20434;-82
2021/12/21 08:40:49;;;;;;;22.73;20.47;;;-1.80;99.90;;;;;;5024941;28;20462;-81
2021/12/21 08:43:24;;;;;;;24.27;21.97;;;-1.60;99.90;;;;;;5028267;28;20442;-83
2021/12/21 08:46:01;;;;;;;23.07;20.97;;;-1.50;99.90;;;;;;5026165;28;20480;-82
2021/12/21 08:48:29;;;;;;;22.00;20.00;;;-1.40;99.90;;;;;;5013927;28;20551;-84
2021/12/21 08:50:57;;;;;;;22.70;20.53;;;-1.20;99.90;;;;;;5022324;28;20458;-83
2021/12/21 08:53:25;;;;;;;22.27;20.27;;;-1.20;99.90;;;;;;5050650;28;20542;-83
2021/12/21 08:55:53;;;;;;;22.50;20.57;;;-1.20;99.90;;;;;;5023778;28;20469;-82
2021/12/21 08:58:21;;;;;;;22.17;20.13;;;-1.10;99.90;;;;;;5027753;28;20452;-84
2021/12/21 09:00:50;;;;;;;20.77;19.07;;;-1.10;99.90;;;;;;5026846;28;20492;-84
2021/12/21 09:03:20;;;;;;;21.07;19.37;;;-1.20;99.90;;;;;;5046489;28;20457;-83
2021/12/21 09:05:49;;;;;;;22.03;19.80;;;-1.20;99.90;;;;;;5026730;28;20888;-83
2021/12/21 09:08:16;;;;;;;22.27;20.17;;;-1.20;99.90;;;;;;5023928;28;20848;-85
2021/12/21 09:10:43;;;;;;;22.30;20.10;;;-1.20;99.90;;;;;;5026688;28;20868;-84
2021/12/21 09:13:10;;;;;;;23.23;21.10;;;-1.20;99.90;;;;;;5044707;28;20473;-83
2021/12/21 09:15:38;;;;;;;23.30;21.00;;;-1.30;99.90;;;;;;5026190;28;20482;-83
2021/12/21 09:18:06;;;;;;;26.43;20.73;;;-1.50;99.90;;;;;;5026817;28;20464;-85
2021/12/21 09:20:37;;;;;;;23.63;21.13;;;-1.50;99.90;;;;;;5018813;28;20821;-84
2021/12/21 09:23:05;;;;;;;22.50;20.10;;;-1.60;99.90;;;;;;5044050;28;20476;-83
2021/12/21 09:25:32;;;;;;;21.90;19.93;;;-1.50;99.90;;;;;;5029596;28;20448;-84
2021/12/21 09:27:59;;;;;;;22.47;20.40;;;-1.60;99.90;;;;;;5025644;28;20485;-83
2021/12/21 09:30:28;;;;;;;22.43;20.23;;;-1.60;99.90;;;;;;5046653;28;20491;-83
2021/12/21 09:32:56;;;;;;;21.67;19.50;;;-1.60;99.90;;;;;;5039288;28;20442;-85
2021/12/21 09:35:24;;;;;;;21.87;19.67;;;-1.60;99.90;;;;;;5023108;28;20484;-84
2021/12/21 09:37:53;;;;;;;23.50;21.20;;;-1.60;99.90;;;;;;5038354;28;20439;-84
2021/12/21 09:40:23;;;;;;;24.37;21.90;;;-1.50;99.90;;;;;;5025476;28;20446;-83
2021/12/21 09:42:52;;;;;;;24.27;21.83;;;-1.40;99.90;;;;;;5031460;28;20445;-82
2021/12/21 09:45:19;;;;;;;24.20;21.20;;;-1.30;99.90;;;;;;5043669;28;20434;-84
2021/12/21 09:47:49;;;;;;;25.13;22.63;;;-1.30;99.90;;;;;;5024506;28;20445;-83
2021/12/21 09:50:17;;;;;;;23.87;21.27;;;-1.30;99.90;;;;;;5026402;28;20469;-83
2021/12/21 09:52:45;;;;;;;25.40;22.80;;;-1.20;99.90;;;;;;5021020;28;20450;-83
2021/12/21 09:55:18;;;;;;;26.43;23.63;;;-1.10;99.90;;;;;;5026931;28;20443;-86
2021/12/21 09:57:47;;;;;;;24.70;22.07;;;-1.20;99.90;;;;;;5027620;28;20573;-84
2021/12/21 10:00:18;;;;;;;25.97;22.50;;;-1.20;99.90;;;;;;5036530;28;20441;-83
2021/12/21 10:02:45;;;;;;;25.27;22.83;;;-1.10;99.90;;;;;;5025848;28;20458;-85
2021/12/21 10:05:14;;;;;;;25.37;22.70;;;-1.20;99.90;;;;;;5021182;28;20447;-85
2021/12/21 10:07:41;;;;;;;23.60;21.20;;;-1.10;99.90;;;;;;5044638;28;20474;-82
2021/12/21 10:10:12;;;;;;;23.57;21.33;;;-1.00;99.90;;;;;;5039215;28;20477;-86
2021/12/21 10:12:43;;;;;;;22.83;20.60;;;-0.90;99.90;;;;;;5030917;28;20450;-84
2021/12/21 10:15:12;;;;;;;22.77;20.50;;;-0.90;99.90;;;;;;5041696;28;20443;-83
2021/12/21 10:17:47;;;;;;;23.87;21.63;;;-0.80;99.90;;;;;;5044665;28;20549;-82
2021/12/21 10:20:14;;;;;;;22.47;20.37;;;-0.80;99.90;;;;;;5025935;28;20481;-83
2021/12/21 10:22:51;;;;;;;24.27;21.97;;;-0.80;99.90;;;;;;5025023;28;20454;-83
2021/12/21 10:25:18;;;;;;;23.17;20.47;;;-0.80;99.90;;;;;;5027174;28;20454;-84
2021/12/21 10:27:47;;;;;;;23.87;21.67;;;-0.80;99.90;;;;;;5051850;28;20442;-84
2021/12/21 10:30:14;;;;;;;26.13;21.83;;;-0.80;99.90;;;;;;5035235;28;20470;-83
2021/12/21 10:32:52;;;;;;;24.00;21.50;;;-0.80;99.90;;;;;;5034303;28;20443;-83
2021/12/21 10:35:19;;;;;;;22.57;20.47;;;-0.80;99.90;;;;;;5042645;28;20445;-82
2021/12/21 10:37:50;;;;;;;23.53;21.33;;;-0.80;99.90;;;;;;5036550;28;20452;-83
2021/12/21 10:40:24;;;;;;;26.53;22.50;;;-0.80;99.90;;;;;;5038028;28;20955;-85
2021/12/21 10:42:58;;;;;;;23.03;21.03;;;-0.90;99.90;;;;;;5043499;28;20466;-85
2021/12/21 10:45:28;;;;;;;23.47;21.17;;;-0.80;99.90;;;;;;5034223;28;20461;-86
2021/12/21 10:47:55;;;;;;;24.50;22.07;;;-0.70;99.90;;;;;;5025461;28;20443;-86
2021/12/21 10:50:23;;;;;;;24.80;22.30;;;-0.70;99.90;;;;;;5045444;28;20557;-86
2021/12/21 10:52:52;;;;;;;25.20;22.50;;;-0.70;99.90;;;;;;5054870;28;20823;-86
2021/12/21 10:55:27;;;;;;;24.83;22.33;;;-0.60;99.90;;;;;;5054986;28;20803;-84
2021/12/21 10:58:11;;;;;;;24.13;21.73;;;-0.60;99.90;;;;;;5034073;28;20453;-83
2021/12/21 11:00:44;;;;;;;23.73;21.43;;;-0.60;99.90;;;;;;5017070;28;20496;-83
2021/12/21 11:03:11;;;;;;;21.93;20.00;;;-0.60;99.90;;;;;;5017980;28;20513;-83
2021/12/21 11:05:40;;;;;;;21.27;19.37;;;-0.50;99.90;;;;;;5039224;28;20450;-86
2021/12/21 11:08:14;;;;;;;21.50;19.60;;;-0.50;99.90;;;;;;5021983;28;20447;-83
2021/12/21 11:10:48;;;;;;;21.87;19.67;;;-0.30;99.90;;;;;;5051517;28;20500;-85
2021/12/21 11:13:16;;;;;;;22.17;20.17;;;-0.30;99.90;;;;;;5027731;28;20456;-84
2021/12/21 11:15:47;;;;;;;22.20;20.00;;;-0.20;99.90;;;;;;5034503;28;20484;-83
2021/12/21 11:18:16;;;;;;;20.97;19.17;;;-0.20;99.90;;;;;;5024786;28;20503;-82
2021/12/21 11:20:45;;;;;;;21.30;19.37;;;-0.20;99.90;;;;;;5050216;28;20433;-83
2021/12/21 11:23:13;;;;;;;19.53;17.73;;;-0.10;99.90;;;;;;5034968;28;20442;-83
2021/12/21 11:25:42;;;;;;;20.73;18.73;;;0.00;99.90;;;;;;5050645;28;21069;-84
2021/12/21 11:28:13;;;;;;;20.97;19.27;;;0.00;99.90;;;;;;5033908;28;20494;-84
2021/12/21 11:30:42;;;;;;;20.53;18.73;;;0.00;99.90;;;;;;5030635;28;20485;-84
2021/12/21 11:33:12;;;;;;;21.43;19.40;;;0.10;99.90;;;;;;5028013;28;20466;-84
2021/12/21 11:38:24;;;;;;;19.90;18.23;;;0.30;99.90;;;;;;5033102;28;20448;-82
2021/12/21 11:40:53;;;;;;;21.45;19.65;;;0.40;99.90;;;;;;5029853;28;20472;-79
2021/12/21 11:43:31;;;;;;;19.67;18.07;;;0.40;99.90;;;;;;5020274;28;20226;-85
2021/12/21 11:46:03;;;;;;;19.93;18.30;;;0.40;99.90;;;;;;5040713;28;20471;-85
2021/12/21 11:48:42;;;;;;;19.47;17.97;;;0.50;99.90;;;;;;5027917;28;20542;-81
2021/12/21 11:51:11;;;;;;;19.53;18.03;;;0.40;99.90;;;;;;5034051;28;20480;-83
2021/12/21 11:53:38;;;;;;;19.60;17.83;;;0.40;99.90;;;;;;5032853;28;20455;-83
2021/12/21 11:56:07;;;;;;;19.63;17.93;;;0.40;99.90;;;;;;5038497;28;20567;-83
2021/12/21 11:58:39;;;;;;;20.33;18.47;;;0.40;99.90;;;;;;5028799;28;20477;-84
2021/12/21 12:01:16;;;;;;;18.87;17.47;;;0.50;99.90;;;;;;5040144;28;20435;-83
2021/12/21 12:03:58;;;;;;;19.83;18.13;;;0.50;99.90;;;;;;5038118;28;20527;-85
2021/12/21 12:06:27;;;;;;;20.00;18.50;;;0.60;99.90;;;;;;5035464;28;20485;-84
2021/12/21 12:08:59;;;;;;;20.30;18.40;;;0.60;99.90;;;;;;5038915;28;20471;-82
2021/12/21 12:11:29;;;;;;;21.00;19.20;;;0.70;99.90;;;;;;5039297;28;20464;-81
2021/12/21 12:14:08;;;;;;;20.53;18.70;;;0.60;99.90;;;;;;5052171;28;20444;-83
2021/12/21 12:16:46;;;;;;;20.70;18.83;;;0.70;99.90;;;;;;5033714;28;20480;-83
2021/12/21 12:19:16;;;;;;;20.20;18.57;;;0.70;99.90;;;;;;5035760;28;20467;-83
2021/12/21 12:21:54;;;;;;;19.63;17.93;;;0.70;99.90;;;;;;5036865;28;20455;-84
2021/12/21 12:24:22;;;;;;;21.10;19.00;;;0.80;99.90;;;;;;5041928;28;20451;-83
2021/12/21 12:26:58;;;;;;;20.43;18.53;;;0.80;99.90;;;;;;5035726;28;20471;-85
2021/12/21 12:29:26;;;;;;;21.20;19.30;;;0.90;99.90;;;;;;5034902;28;20484;-84
2021/12/21 12:32:04;;;;;;;21.30;19.30;;;1.00;99.90;;;;;;5041910;28;20531;-86
2021/12/21 12:34:34;;;;;;;21.57;19.60;;;1.00;99.90;;;;;;5027343;28;20450;-84
2021/12/21 12:37:13;;;;;;;20.33;18.53;;;1.00;99.90;;;;;;5033985;28;20507;-86
2021/12/21 12:39:43;;;;;;;21.50;19.50;;;1.00;99.90;;;;;;5026910;28;20440;-86
2021/12/21 12:42:12;;;;;;;20.90;18.70;;;1.10;99.90;;;;;;5036765;28;20524;-86
2021/12/21 12:44:45;;;;;;;20.53;18.87;;;1.10;99.90;;;;;;5029406;28;20450;-85
2021/12/21 12:47:16;;;;;;;20.47;18.73;;;1.10;99.90;;;;;;5028494;28;20480;-82
2021/12/21 12:49:50;;;;;;;20.87;18.73;;;1.10;99.90;;;;;;5046751;28;20473;-84
2021/12/21 12:52:19;;;;;;;19.83;18.13;;;1.10;99.90;;;;;;5045781;28;20454;-83
2021/12/21 12:54:49;;;;;;;20.53;18.63;;;1.20;99.90;;;;;;5029341;28;20867;-83
2021/12/21 12:57:49;;;;;;;19.77;18.13;;;1.20;99.90;;;;;;5026895;28;20465;-84
2021/12/21 13:00:21;;;;;;;20.60;18.70;;;1.30;99.90;;;;;;5036679;28;20448;-86
2021/12/21 13:02:58;;;;;;;20.10;18.50;;;1.30;99.90;;;;;;5045150;28;20440;-79
2021/12/21 13:05:30;;;;;;;18.73;17.17;;;1.30;99.90;;;;;;5047948;28;20435;-80
2021/12/21 13:08:08;;;;;;;20.60;18.60;;;1.40;99.90;;;;;;5062421;28;20437;-83
2021/12/21 13:10:36;;;;;;;19.67;17.87;;;1.40;99.90;;;;;;5035337;28;20483;-82
2021/12/21 13:13:04;;;;;;;18.63;17.13;;;1.40;99.90;;;;;;5037778;28;20472;-82